Time;durP1;ratioP1;P1;durP2;ratioP2;P2;SDS_P1;SDS_P2;PMS_P1;PMS_P2;Temp;Humidity;BMP_temperature;BMP_pressure;BME280_temperature;BME280_humidity;BME280_pressure;Samples;Min_cycle;Max_cycle;Signal;HPM_P1;HPM_P2
2023/11/21 00:02:12;;;;;;;26.73;14.07;;;9.10;99.90;;;;;;5044162;28;20051;-82
2023/11/21 00:04:38;;;;;;;26.97;13.97;;;9.10;99.90;;;;;;5045581;28;20060;-81
2023/11/21 00:07:05;;;;;;;26.33;13.67;;;9.10;99.90;;;;;;5043866;28;20035;-81
2023/11/21 00:09:31;;;;;;;29.03;14.77;;;9.10;99.90;;;;;;5045309;28;20398;-82
2023/11/21 00:11:59;;;;;;;26.03;15.20;;;9.10;99.90;;;;;;5044298;28;20473;-81
2023/11/21 00:14:25;;;;;;;31.80;14.57;;;9.10;99.90;;;;;;5062520;28;20025;-81
2023/11/21 00:16:50;;;;;;;25.17;14.63;;;9.10;99.90;;;;;;5045450;28;20516;-83
2023/11/21 00:19:16;;;;;;;22.73;13.63;;;9.00;99.90;;;;;;5043521;28;20021;-83
2023/11/21 00:21:44;;;;;;;33.40;15.00;;;9.00;99.90;;;;;;5045459;28;20029;-84
2023/11/21 00:24:10;;;;;;;27.80;15.07;;;9.00;99.90;;;;;;5043024;28;20053;-83
2023/11/21 00:26:39;;;;;;;29.00;14.63;;;9.00;99.90;;;;;;5044816;28;20029;-84
2023/11/21 00:29:07;;;;;;;28.93;15.13;;;9.00;99.90;;;;;;5043780;28;20024;-83
2023/11/21 00:31:35;;;;;;;25.93;16.13;;;8.90;99.90;;;;;;5062009;28;20085;-83
2023/11/21 00:34:03;;;;;;;28.57;15.37;;;8.90;99.90;;;;;;5045162;28;20029;-83
2023/11/21 00:36:29;;;;;;;30.53;16.30;;;8.90;99.90;;;;;;5043103;28;20029;-84
2023/11/21 00:38:55;;;;;;;29.50;14.93;;;8.90;99.90;;;;;;5062848;28;20067;-84
2023/11/21 00:41:21;;;;;;;35.87;17.33;;;8.90;99.90;;;;;;5060936;28;20028;-84
2023/11/21 00:43:47;;;;;;;29.13;16.07;;;8.90;99.90;;;;;;5045121;28;20016;-84
2023/11/21 00:46:13;;;;;;;27.20;15.17;;;8.90;99.90;;;;;;5043901;28;20115;-84
2023/11/21 00:48:39;;;;;;;32.40;16.23;;;8.80;99.90;;;;;;5043934;28;20021;-83
2023/11/21 00:51:06;;;;;;;34.37;17.03;;;8.90;99.90;;;;;;5044783;28;20024;-84
2023/11/21 00:53:32;;;;;;;30.87;15.40;;;8.80;99.90;;;;;;5042967;28;20032;-84
2023/11/21 00:55:57;;;;;;;30.20;15.83;;;8.80;99.90;;;;;;5044841;28;20017;-84
2023/11/21 00:58:27;;;;;;;28.67;15.30;;;8.80;99.90;;;;;;5042938;28;20074;-83
2023/11/21 01:00:52;;;;;;;30.93;16.03;;;8.80;99.90;;;;;;5044685;28;20009;-84
2023/11/21 01:03:18;;;;;;;27.07;14.83;;;8.80;99.90;;;;;;5044001;28;20378;-83
2023/11/21 01:05:44;;;;;;;29.10;16.17;;;8.70;99.90;;;;;;5043875;28;20108;-85
2023/11/21 01:08:11;;;;;;;34.87;16.67;;;8.80;99.90;;;;;;5044633;28;20043;-84
2023/11/21 01:10:36;;;;;;;29.93;14.93;;;8.70;99.90;;;;;;5043353;28;20043;-84
2023/11/21 01:13:05;;;;;;;30.70;15.30;;;8.70;99.90;;;;;;5044719;28;20025;-83
2023/11/21 01:15:31;;;;;;;27.20;15.50;;;8.70;99.90;;;;;;5060774;28;20021;-82
2023/11/21 01:17:57;;;;;;;29.13;14.70;;;8.70;99.90;;;;;;5044341;28;20107;-83
2023/11/21 01:20:22;;;;;;;26.83;14.37;;;8.70;99.90;;;;;;5043578;28;20104;-82
2023/11/21 01:22:51;;;;;;;28.13;14.10;;;8.80;99.90;;;;;;5043576;28;20105;-82
2023/11/21 01:25:17;;;;;;;24.40;13.33;;;8.80;99.90;;;;;;5044080;28;20036;-82
2023/11/21 01:27:43;;;;;;;29.63;14.17;;;8.80;99.90;;;;;;5041992;28;20044;-82
2023/11/21 01:30:10;;;;;;;28.17;14.47;;;8.80;99.90;;;;;;5044455;28;20025;-83
2023/11/21 01:32:37;;;;;;;28.50;14.67;;;8.80;99.90;;;;;;5042342;28;20071;-83
2023/11/21 01:35:05;;;;;;;30.80;15.30;;;8.80;99.90;;;;;;5044268;28;20017;-82
2023/11/21 01:37:31;;;;;;;32.47;15.60;;;8.80;99.90;;;;;;5043163;28;20155;-83
2023/11/21 01:39:56;;;;;;;31.33;14.83;;;8.80;99.90;;;;;;5043378;28;20491;-82
2023/11/21 01:42:22;;;;;;;29.13;15.57;;;8.80;99.90;;;;;;5044071;28;20013;-83
2023/11/21 01:44:48;;;;;;;28.80;14.37;;;8.80;99.90;;;;;;5042452;28;20040;-82
2023/11/21 01:47:15;;;;;;;26.80;14.87;;;8.80;99.90;;;;;;5044061;28;20078;-83
2023/11/21 01:49:44;;;;;;;27.70;15.37;;;8.80;99.90;;;;;;5042059;28;20108;-83
2023/11/21 01:52:11;;;;;;;30.40;14.20;;;8.80;99.90;;;;;;5044208;28;20025;-84
2023/11/21 01:54:37;;;;;;;27.43;14.37;;;8.80;99.90;;;;;;5043003;28;20063;-82
2023/11/21 01:57:06;;;;;;;27.37;14.87;;;8.80;99.90;;;;;;5043186;28;20506;-84
2023/11/21 01:59:36;;;;;;;30.33;14.80;;;8.80;99.90;;;;;;5043849;28;20033;-82
2023/11/21 02:02:06;;;;;;;26.90;14.70;;;8.90;99.90;;;;;;5042735;28;20032;-82
2023/11/21 02:04:33;;;;;;;32.40;17.07;;;8.90;99.90;;;;;;5043932;28;20060;-82
2023/11/21 02:06:59;;;;;;;26.73;15.03;;;8.90;99.90;;;;;;5042200;28;20028;-82
2023/11/21 02:09:31;;;;;;;35.07;16.23;;;8.90;99.90;;;;;;5043564;28;20459;-82
2023/11/21 02:11:58;;;;;;;31.03;15.63;;;8.90;99.90;;;;;;5043253;28;20029;-82
2023/11/21 02:14:26;;;;;;;33.60;15.23;;;8.90;99.90;;;;;;5042826;28;20067;-82
2023/11/21 02:16:53;;;;;;;34.90;15.43;;;8.90;99.90;;;;;;5061735;28;20036;-82
2023/11/21 02:19:25;;;;;;;33.40;17.47;;;8.90;99.90;;;;;;5041932;28;20391;-82
2023/11/21 02:21:51;;;;;;;35.53;16.87;;;8.90;99.90;;;;;;5043710;28;20021;-81
2023/11/21 02:24:21;;;;;;;33.93;16.93;;;8.90;99.90;;;;;;5042156;28;20422;-82
2023/11/21 02:26:48;;;;;;;30.53;15.97;;;8.90;99.90;;;;;;5043577;28;20032;-82
2023/11/21 02:29:16;;;;;;;31.27;16.23;;;8.90;99.90;;;;;;5042838;28;20041;-81
2023/11/21 02:31:47;;;;;;;34.30;16.70;;;8.90;99.90;;;;;;5042148;28;20051;-81
2023/11/21 02:34:17;;;;;;;38.30;16.33;;;8.90;99.90;;;;;;5061913;28;20044;-81
2023/11/21 02:36:50;;;;;;;36.30;16.73;;;8.90;99.90;;;;;;5041509;28;20033;-82
2023/11/21 02:39:16;;;;;;;30.95;16.58;;;8.90;99.90;;;;;;5061709;28;20074;-82
2023/11/21 02:41:45;;;;;;;34.27;16.60;;;8.90;99.90;;;;;;5046025;28;20017;-83
2023/11/21 02:44:11;;;;;;;34.37;17.57;;;8.90;99.90;;;;;;5046281;28;20505;-83
2023/11/21 02:46:37;;;;;;;38.33;16.90;;;8.90;99.90;;;;;;5046816;28;20048;-83
2023/11/21 02:49:03;;;;;;;32.40;16.77;;;8.90;99.90;;;;;;5045674;28;20025;-82
2023/11/21 02:51:30;;;;;;;29.83;15.67;;;8.90;99.90;;;;;;5047070;28;20023;-83
2023/11/21 02:54:00;;;;;;;33.60;16.13;;;8.90;99.90;;;;;;5045325;28;20021;-83
2023/11/21 02:56:26;;;;;;;40.43;17.50;;;8.90;99.90;;;;;;5064805;28;20074;-82
2023/11/21 02:58:55;;;;;;;41.77;16.23;;;8.90;99.90;;;;;;5063952;28;20020;-83
2023/11/21 03:01:20;;;;;;;39.33;17.17;;;8.90;99.90;;;;;;5046060;28;20027;-83
2023/11/21 03:03:47;;;;;;;44.10;16.40;;;8.90;99.90;;;;;;5046389;28;20556;-83
2023/11/21 03:06:13;;;;;;;38.20;17.03;;;9.00;99.90;;;;;;5044957;28;20040;-83
2023/11/21 03:08:39;;;;;;;43.20;17.27;;;8.90;99.90;;;;;;5046575;28;20044;-84
2023/11/21 03:11:04;;;;;;;38.70;17.17;;;8.90;99.90;;;;;;5044763;28;20245;-83
2023/11/21 03:13:30;;;;;;;40.13;16.67;;;8.90;99.90;;;;;;5046904;28;20092;-84
2023/11/21 03:15:55;;;;;;;44.87;17.63;;;8.90;99.90;;;;;;5045506;28;20092;-84
2023/11/21 03:18:24;;;;;;;54.97;16.97;;;8.90;99.90;;;;;;5045998;28;20037;-84
2023/11/21 03:20:52;;;;;;;48.80;16.23;;;8.90;99.90;;;;;;5045820;28;20047;-84
2023/11/21 03:23:18;;;;;;;50.07;18.03;;;8.90;99.90;;;;;;5044611;28;20067;-84
2023/11/21 03:25:43;;;;;;;50.77;17.47;;;8.90;99.90;;;;;;5046438;28;20502;-83
2023/11/21 03:28:09;;;;;;;55.33;15.93;;;8.90;99.90;;;;;;5062236;28;20074;-84
2023/11/21 03:30:35;;;;;;;40.57;15.97;;;8.90;99.90;;;;;;5046552;28;20036;-84
2023/11/21 03:33:01;;;;;;;53.07;15.33;;;8.90;99.90;;;;;;5045139;28;20040;-84
2023/11/21 03:35:26;;;;;;;35.50;15.90;;;8.80;99.90;;;;;;5045410;28;20091;-84
2023/11/21 03:37:52;;;;;;;51.50;16.63;;;8.80;99.90;;;;;;5045795;28;20024;-83
2023/11/21 03:40:18;;;;;;;40.60;16.33;;;8.80;99.90;;;;;;5044915;28;20518;-84
2023/11/21 03:42:43;;;;;;;37.60;15.97;;;8.80;99.90;;;;;;5046207;28;20058;-85
2023/11/21 03:45:09;;;;;;;41.93;16.03;;;8.80;99.90;;;;;;5044143;28;20089;-84
2023/11/21 03:47:35;;;;;;;44.63;15.20;;;8.80;99.90;;;;;;5045858;28;20053;-85
2023/11/21 03:50:01;;;;;;;42.13;13.50;;;8.70;99.90;;;;;;5044313;28;20028;-85
2023/11/21 03:52:28;;;;;;;31.57;13.47;;;8.70;99.90;;;;;;5063275;28;20047;-84
2023/11/21 03:54:54;;;;;;;59.10;15.77;;;8.70;99.90;;;;;;5045498;28;20025;-83
2023/11/21 03:57:21;;;;;;;35.73;14.60;;;8.70;99.90;;;;;;5044206;28;20047;-83
2023/11/21 03:59:46;;;;;;;31.03;14.43;;;8.70;99.90;;;;;;5045824;28;20032;-83
2023/11/21 04:02:12;;;;;;;34.33;13.23;;;8.70;99.90;;;;;;5043483;28;20028;-83
2023/11/21 04:04:38;;;;;;;32.30;13.27;;;8.70;99.90;;;;;;5045735;28;20048;-83
2023/11/21 04:07:04;;;;;;;40.13;14.83;;;8.70;99.90;;;;;;5043984;28;20017;-83
2023/11/21 04:09:30;;;;;;;33.00;13.23;;;8.80;99.90;;;;;;5045285;28;20386;-83
2023/11/21 04:11:55;;;;;;;34.60;14.33;;;8.70;99.90;;;;;;5045100;28;20092;-83
2023/11/21 04:14:22;;;;;;;32.63;13.70;;;8.70;99.90;;;;;;5044573;28;20112;-83
2023/11/21 04:16:48;;;;;;;28.57;13.27;;;8.70;99.90;;;;;;5045076;28;20108;-83
2023/11/21 04:19:17;;;;;;;36.60;13.03;;;8.80;99.90;;;;;;5043756;28;20033;-82
2023/11/21 04:21:43;;;;;;;32.07;12.63;;;8.70;99.90;;;;;;5045577;28;20029;-83
2023/11/21 04:24:09;;;;;;;33.33;12.73;;;8.70;99.90;;;;;;5043454;28;20041;-83
2023/11/21 04:26:34;;;;;;;21.67;11.43;;;8.70;99.90;;;;;;5045393;28;20086;-82
2023/11/21 04:29:00;;;;;;;29.07;12.90;;;8.80;99.90;;;;;;5044379;28;20482;-84
2023/11/21 04:31:25;;;;;;;22.30;12.70;;;8.80;99.90;;;;;;5044342;28;20405;-84
2023/11/21 04:33:51;;;;;;;26.57;12.83;;;8.80;99.90;;;;;;5045175;28;20017;-82
2023/11/21 04:36:17;;;;;;;26.27;13.07;;;8.90;99.90;;;;;;5061309;28;20070;-82
2023/11/21 04:38:42;;;;;;;26.63;12.67;;;8.90;99.90;;;;;;5044952;28;20021;-82
2023/11/21 04:41:08;;;;;;;26.97;14.10;;;8.80;99.90;;;;;;5043577;28;20017;-83
2023/11/21 04:43:34;;;;;;;29.20;12.53;;;8.90;99.90;;;;;;5062994;28;20021;-83
2023/11/21 04:46:00;;;;;;;21.60;12.10;;;8.90;99.90;;;;;;5043708;28;20043;-83
2023/11/21 04:48:26;;;;;;;22.27;13.03;;;8.90;99.90;;;;;;5043849;28;20025;-84
2023/11/21 04:50:51;;;;;;;30.20;13.80;;;8.90;99.90;;;;;;5044463;28;20032;-84
2023/11/21 04:53:17;;;;;;;24.30;13.07;;;8.90;99.90;;;;;;5043368;28;20035;-83
2023/11/21 04:55:43;;;;;;;31.83;13.60;;;8.90;99.90;;;;;;5044931;28;20036;-83
2023/11/21 04:58:11;;;;;;;22.57;13.30;;;8.90;99.90;;;;;;5043462;28;20029;-84
2023/11/21 05:00:36;;;;;;;30.20;13.60;;;8.80;99.90;;;;;;5043732;28;20104;-84
2023/11/21 05:03:03;;;;;;;23.33;13.97;;;8.90;99.90;;;;;;5042557;28;20020;-84
2023/11/21 05:05:33;;;;;;;24.37;14.27;;;8.90;99.90;;;;;;5043704;28;20072;-83
2023/11/21 05:07:59;;;;;;;23.87;13.63;;;8.90;99.90;;;;;;5044603;28;20111;-84
2023/11/21 05:10:25;;;;;;;22.50;13.03;;;8.90;99.90;;;;;;5042886;28;20033;-83
2023/11/21 05:12:51;;;;;;;22.73;13.87;;;8.90;99.90;;;;;;5062640;28;20044;-84
2023/11/21 05:15:17;;;;;;;24.60;13.20;;;8.90;99.90;;;;;;5042682;28;20505;-84
2023/11/21 05:17:44;;;;;;;28.47;14.77;;;8.90;99.90;;;;;;5044780;28;20017;-84
2023/11/21 05:20:12;;;;;;;23.97;12.63;;;8.90;99.90;;;;;;5043227;28;20021;-83
2023/11/21 05:22:37;;;;;;;24.20;14.20;;;8.90;99.90;;;;;;5043759;28;20041;-83
2023/11/21 05:25:05;;;;;;;24.97;14.03;;;9.00;99.90;;;;;;5044027;28;20037;-84
2023/11/21 05:27:30;;;;;;;25.10;13.73;;;9.00;99.90;;;;;;5042397;28;20017;-84
2023/11/21 05:29:57;;;;;;;26.63;14.63;;;9.00;99.90;;;;;;5062044;28;20043;-84
2023/11/21 05:32:24;;;;;;;25.13;13.57;;;9.00;99.90;;;;;;5042737;28;20047;-84
2023/11/21 05:34:49;;;;;;;24.20;13.57;;;9.00;99.90;;;;;;5044080;28;20028;-84
2023/11/21 05:37:15;;;;;;;22.20;13.37;;;9.00;99.90;;;;;;5043156;28;20036;-84
2023/11/21 05:39:41;;;;;;;23.03;13.90;;;9.00;99.90;;;;;;5043861;28;20012;-83
2023/11/21 05:42:08;;;;;;;24.43;13.43;;;9.00;99.90;;;;;;5044883;28;20048;-83
2023/11/21 05:44:34;;;;;;;23.27;12.83;;;9.00;99.90;;;;;;5041937;28;20045;-83
2023/11/21 05:47:00;;;;;;;22.23;13.10;;;9.00;99.90;;;;;;5043940;28;20028;-83
2023/11/21 05:49:26;;;;;;;22.47;12.60;;;9.00;99.90;;;;;;5043082;28;20025;-83
2023/11/21 05:51:56;;;;;;;23.47;12.77;;;9.00;99.90;;;;;;5047355;28;20028;-83
2023/11/21 05:54:22;;;;;;;23.37;13.50;;;9.00;99.90;;;;;;5062621;28;20027;-83
2023/11/21 05:56:47;;;;;;;22.17;12.77;;;9.10;99.90;;;;;;5063397;28;20044;-82
2023/11/21 05:59:13;;;;;;;25.00;13.50;;;9.10;99.90;;;;;;5063379;28;20024;-82
2023/11/21 06:01:39;;;;;;;23.10;12.83;;;9.10;99.90;;;;;;5062389;28;20047;-81
2023/11/21 06:04:05;;;;;;;23.77;13.50;;;9.10;99.90;;;;;;5063551;28;20032;-81
2023/11/21 06:06:31;;;;;;;22.33;12.87;;;9.10;99.90;;;;;;5061959;28;20146;-81
2023/11/21 06:08:57;;;;;;;22.90;13.97;;;9.10;99.90;;;;;;5065132;28;20056;-81
2023/11/21 06:11:24;;;;;;;24.93;13.93;;;9.10;99.90;;;;;;5052849;28;20020;-81
2023/11/21 06:13:50;;;;;;;21.77;13.63;;;9.20;99.90;;;;;;5054645;28;20071;-81
2023/11/21 06:16:18;;;;;;;23.23;13.70;;;9.20;99.90;;;;;;5062035;28;20020;-81
2023/11/21 06:18:44;;;;;;;21.70;12.93;;;9.20;99.90;;;;;;5060415;28;20025;-81
2023/11/21 06:21:10;;;;;;;22.77;12.80;;;9.20;99.90;;;;;;5055182;28;20031;-81
2023/11/21 06:23:36;;;;;;;23.23;12.83;;;9.20;99.90;;;;;;5056018;28;20052;-81
2023/11/21 06:26:02;;;;;;;21.47;13.83;;;9.20;99.90;;;;;;5056005;28;20033;-81
2023/11/21 06:28:27;;;;;;;23.90;14.47;;;9.20;99.90;;;;;;5054605;28;20036;-81
2023/11/21 06:30:53;;;;;;;25.17;13.67;;;9.30;99.90;;;;;;5057021;28;20029;-81
2023/11/21 06:33:19;;;;;;;25.43;14.67;;;9.30;99.90;;;;;;5061058;28;20685;-80
2023/11/21 06:35:45;;;;;;;22.30;14.43;;;9.30;99.90;;;;;;5065990;28;20414;-81
2023/11/21 06:38:10;;;;;;;25.77;14.07;;;9.30;99.90;;;;;;5067117;28;20020;-81
2023/11/21 06:40:36;;;;;;;23.27;14.10;;;9.30;99.90;;;;;;5065672;28;20023;-81
2023/11/21 06:43:02;;;;;;;25.43;14.23;;;9.30;99.90;;;;;;5067114;28;20027;-81
2023/11/21 06:45:27;;;;;;;24.10;14.53;;;9.30;99.90;;;;;;5065069;28;20028;-81
2023/11/21 06:47:53;;;;;;;24.43;14.53;;;9.30;99.90;;;;;;5067113;28;20025;-82
2023/11/21 06:50:19;;;;;;;26.73;15.40;;;9.30;99.90;;;;;;5054709;28;20021;-81
2023/11/21 06:52:44;;;;;;;25.43;14.87;;;9.30;99.90;;;;;;5063956;28;20059;-82
2023/11/21 06:55:10;;;;;;;29.57;15.83;;;9.30;99.90;;;;;;5048283;28;20075;-81
2023/11/21 06:57:36;;;;;;;26.73;15.10;;;9.30;99.90;;;;;;5046780;28;20036;-81
2023/11/21 07:00:03;;;;;;;25.53;15.30;;;9.30;99.90;;;;;;5047749;28;20021;-81
2023/11/21 07:02:28;;;;;;;27.33;15.67;;;9.40;99.90;;;;;;5044813;28;20025;-81
2023/11/21 07:04:54;;;;;;;27.13;15.37;;;9.40;99.90;;;;;;5046643;28;20044;-82
2023/11/21 07:07:20;;;;;;;25.57;15.13;;;9.40;99.90;;;;;;5045319;28;20021;-81
2023/11/21 07:09:45;;;;;;;25.67;15.63;;;9.40;99.90;;;;;;5045994;28;20024;-82
2023/11/21 07:12:12;;;;;;;28.87;16.13;;;9.50;99.90;;;;;;5045736;28;20040;-81
2023/11/21 07:14:39;;;;;;;27.40;15.87;;;9.50;99.90;;;;;;5044728;28;20568;-82
2023/11/21 07:17:04;;;;;;;29.63;16.00;;;9.50;99.90;;;;;;5046458;28;20102;-82
2023/11/21 07:19:30;;;;;;;34.20;15.97;;;9.50;99.90;;;;;;5044430;28;20043;-81
2023/11/21 07:21:56;;;;;;;29.73;16.57;;;9.50;99.90;;;;;;5045891;28;20032;-82
2023/11/21 07:24:22;;;;;;;33.23;17.80;;;9.50;99.90;;;;;;5044571;28;20049;-81
2023/11/21 07:26:48;;;;;;;29.10;16.40;;;9.50;99.90;;;;;;5044418;28;20387;-83
2023/11/21 07:29:14;;;;;;;27.47;14.87;;;9.50;99.90;;;;;;5045701;28;20032;-82
2023/11/21 07:31:41;;;;;;;27.57;16.20;;;9.60;99.90;;;;;;5044760;28;20258;-80
2023/11/21 07:34:08;;;;;;;30.73;16.30;;;9.60;99.90;;;;;;5045972;28;20040;-81
2023/11/21 07:36:34;;;;;;;32.57;16.47;;;9.60;99.90;;;;;;5044142;28;20025;-81
2023/11/21 07:39:00;;;;;;;28.83;16.63;;;9.60;99.90;;;;;;5064380;28;20108;-81
2023/11/21 07:41:26;;;;;;;30.50;17.23;;;9.60;99.90;;;;;;5044606;28;20092;-81
2023/11/21 07:43:51;;;;;;;27.25;16.80;;;9.60;99.90;;;;;;5045393;28;20028;-81
2023/11/21 07:46:17;;;;;;;33.87;17.53;;;9.60;99.90;;;;;;5045616;28;20017;-81
2023/11/21 07:48:43;;;;;;;32.57;17.90;;;9.70;99.90;;;;;;5044559;28;20009;-81
2023/11/21 07:51:10;;;;;;;28.43;16.50;;;9.60;99.90;;;;;;5064206;28;20009;-81
2023/11/21 07:53:36;;;;;;;27.17;15.83;;;9.70;99.90;;;;;;5044348;28;20021;-81
2023/11/21 07:56:09;;;;;;;27.67;15.87;;;9.70;99.90;;;;;;5046298;28;20381;-81
2023/11/21 07:58:38;;;;;;;31.20;15.93;;;9.70;99.90;;;;;;5044705;28;20368;-82
2023/11/21 08:01:03;;;;;;;29.33;16.93;;;9.70;99.90;;;;;;5045032;28;20017;-82
2023/11/21 08:03:30;;;;;;;31.90;16.87;;;9.70;99.90;;;;;;5045536;28;20084;-82
2023/11/21 08:05:57;;;;;;;28.77;16.60;;;9.70;99.90;;;;;;5044126;28;20057;-82
2023/11/21 08:08:23;;;;;;;27.33;16.47;;;9.80;99.90;;;;;;5045833;28;20021;-82
2023/11/21 08:10:55;;;;;;;30.40;16.70;;;9.80;99.90;;;;;;5043246;28;20017;-82
2023/11/21 08:13:22;;;;;;;27.93;14.97;;;9.80;99.90;;;;;;5045829;28;20024;-82
2023/11/21 08:15:48;;;;;;;29.73;16.73;;;9.80;99.90;;;;;;5044281;28;20025;-82
2023/11/21 08:18:14;;;;;;;32.87;16.53;;;9.90;99.90;;;;;;5044890;28;20021;-83
2023/11/21 08:20:40;;;;;;;35.07;16.80;;;9.90;99.90;;;;;;5045135;28;20067;-82
2023/11/21 08:23:06;;;;;;;30.00;17.63;;;9.90;99.90;;;;;;5043569;28;20037;-82
2023/11/21 08:25:34;;;;;;;32.22;17.98;;;9.90;99.90;;;;;;5062507;28;20406;-82
2023/11/21 08:28:00;;;;;;;38.63;18.63;;;9.90;99.90;;;;;;5043183;28;20113;-82
2023/11/21 08:30:29;;;;;;;34.93;18.13;;;10.00;99.90;;;;;;5045378;28;20025;-82
2023/11/21 08:32:57;;;;;;;32.97;18.47;;;10.00;99.90;;;;;;5043816;28;20044;-82
2023/11/21 08:35:26;;;;;;;39.07;18.23;;;10.00;99.90;;;;;;5044401;28;20057;-82
2023/11/21 08:37:55;;;;;;;38.60;19.10;;;10.00;99.90;;;;;;5044546;28;20163;-82
2023/11/21 08:40:21;;;;;;;39.17;18.53;;;10.00;99.90;;;;;;5043367;28;20029;-81
2023/11/21 08:42:47;;;;;;;44.37;19.67;;;10.00;99.90;;;;;;5044999;28;20027;-82
2023/11/21 08:45:14;;;;;;;35.03;18.93;;;10.00;99.90;;;;;;5043004;28;20029;-82
2023/11/21 08:47:40;;;;;;;39.17;19.17;;;10.10;99.90;;;;;;5062839;28;20029;-82
2023/11/21 08:50:07;;;;;;;37.03;17.70;;;10.10;99.90;;;;;;5043592;28;20075;-82
2023/11/21 08:52:34;;;;;;;34.93;17.80;;;10.20;99.90;;;;;;5043950;28;20039;-82
2023/11/21 08:55:07;;;;;;;35.33;18.60;;;10.20;99.90;;;;;;5044582;28;20024;-82
2023/11/21 08:57:33;;;;;;;35.35;18.25;;;10.20;99.90;;;;;;5043076;28;20081;-82
2023/11/21 08:59:59;;;;;;;35.40;17.60;;;10.30;99.90;;;;;;5044364;28;20036;-82
2023/11/21 09:02:28;;;;;;;38.60;18.00;;;10.30;99.90;;;;;;5042897;28;20033;-82
2023/11/21 09:04:53;;;;;;;35.83;17.67;;;10.30;99.90;;;;;;5044185;28;20025;-81
2023/11/21 09:07:20;;;;;;;32.47;17.05;;;10.40;99.90;;;;;;5043147;28;20028;-82
2023/11/21 09:09:47;;;;;;;32.10;17.40;;;10.50;99.90;;;;;;5043678;28;20065;-82
2023/11/21 09:12:13;;;;;;;40.05;17.65;;;10.50;99.90;;;;;;5044156;28;20025;-82
2023/11/21 09:14:39;;;;;;;36.75;17.40;;;10.50;99.90;;;;;;5042984;28;20060;-82
2023/11/21 09:17:10;;;;;;;36.33;18.63;;;10.50;99.90;;;;;;5044497;28;20020;-82
2023/11/21 09:19:41;;;;;;;33.55;18.52;;;10.50;99.90;;;;;;5042389;28;20056;-82
2023/11/21 09:22:07;;;;;;;36.83;17.70;;;10.50;99.90;;;;;;5043960;28;20024;-82
2023/11/21 09:24:35;;;;;;;41.38;18.85;;;10.60;99.90;;;;;;5043040;28;20048;-82
2023/11/21 09:27:01;;;;;;;35.47;17.88;;;10.60;99.90;;;;;;5043372;28;20494;-82
2023/11/21 09:29:27;;;;;;;37.80;18.50;;;10.60;99.90;;;;;;5043573;28;20064;-82
2023/11/21 09:31:54;;;;;;;39.17;19.60;;;10.60;99.90;;;;;;5042550;28;20028;-81
2023/11/21 09:34:21;;;;;;;38.85;18.98;;;10.60;99.90;;;;;;5044460;28;20025;-82
2023/11/21 09:36:47;;;;;;;39.00;18.42;;;10.60;99.90;;;;;;5042210;28;20024;-82
2023/11/21 09:39:14;;;;;;;35.50;17.10;;;10.60;99.90;;;;;;5043888;28;20064;-82
2023/11/21 09:41:50;;;;;;;37.92;18.40;;;10.60;99.90;;;;;;5043169;28;20032;-82
2023/11/21 09:44:33;;;;;;;41.28;19.40;;;10.70;99.90;;;;;;5043001;28;20489;-82
2023/11/21 09:46:59;;;;;;;39.28;19.55;;;10.70;99.90;;;;;;5044038;28;20116;-82
2023/11/21 09:49:27;;;;;;;39.38;19.13;;;10.70;99.90;;;;;;5044133;28;20024;-82
2023/11/21 09:51:56;;;;;;;32.88;19.27;;;10.80;99.90;;;;;;5047917;28;20039;-82
2023/11/21 09:54:21;;;;;;;41.45;21.33;;;10.80;99.90;;;;;;5047069;28;20029;-82
2023/11/21 09:56:48;;;;;;;42.97;20.52;;;10.80;99.90;;;;;;5065666;28;20058;-82
2023/11/21 09:59:15;;;;;;;35.97;18.58;;;10.80;99.90;;;;;;5047636;28;20394;-82
2023/11/21 10:01:42;;;;;;;40.03;20.33;;;10.90;99.90;;;;;;5046472;28;20080;-82
2023/11/21 10:04:14;;;;;;;35.42;19.15;;;10.90;99.90;;;;;;5047434;28;20021;-82
2023/11/21 10:06:45;;;;;;;42.50;21.63;;;10.90;99.90;;;;;;5045713;28;20052;-82
2023/11/21 10:09:13;;;;;;;37.83;19.95;;;11.00;99.90;;;;;;5047799;28;20025;-82
2023/11/21 10:11:46;;;;;;;34.88;19.08;;;11.10;99.90;;;;;;5046648;28;20017;-82
2023/11/21 10:14:13;;;;;;;35.15;19.77;;;11.20;99.90;;;;;;5064762;28;20405;-82
2023/11/21 10:16:40;;;;;;;35.97;18.63;;;11.30;99.90;;;;;;5047369;28;20025;-82
2023/11/21 10:19:09;;;;;;;36.33;19.27;;;11.40;99.90;;;;;;5045853;28;20021;-82
2023/11/21 10:21:35;;;;;;;36.88;18.35;;;11.40;99.90;;;;;;5047762;28;20187;-82
2023/11/21 10:24:01;;;;;;;33.30;18.27;;;11.60;99.90;;;;;;5045826;28;20040;-82
2023/11/21 10:26:28;;;;;;;35.05;18.27;;;11.60;99.90;;;;;;5046987;28;20525;-82
2023/11/21 10:29:03;;;;;;;34.53;18.52;;;11.70;99.90;;;;;;5046170;28;20025;-82
2023/11/21 10:31:32;;;;;;;37.92;18.40;;;11.70;99.90;;;;;;5046144;28;20020;-82
2023/11/21 10:34:15;;;;;;;30.23;17.55;;;11.80;99.90;;;;;;5047354;28;20031;-82
2023/11/21 10:36:41;;;;;;;32.47;17.60;;;11.80;99.90;;;;;;5045256;28;20040;-82
2023/11/21 10:39:07;;;;;;;32.35;16.88;;;11.80;99.90;;;;;;5047508;28;20104;-82
2023/11/21 10:41:34;;;;;;;28.20;15.75;;;11.80;99.90;;;;;;5046082;28;20017;-82
2023/11/21 10:43:59;;;;;;;31.27;16.08;;;11.80;99.90;;;;;;5046608;28;20028;-82
2023/11/21 10:46:27;;;;;;;27.77;14.93;;;11.80;99.90;;;;;;5047332;28;20017;-82
2023/11/21 10:48:54;;;;;;;26.75;15.13;;;11.90;99.90;;;;;;5045373;28;20025;-82
2023/11/21 10:51:20;;;;;;;26.80;14.68;;;11.90;99.90;;;;;;5047172;28;20017;-82
2023/11/21 10:53:46;;;;;;;23.83;14.55;;;11.90;99.90;;;;;;5045201;28;20086;-83
2023/11/21 10:56:19;;;;;;;23.95;13.15;;;11.90;99.90;;;;;;5047167;28;20013;-82
2023/11/21 10:58:45;;;;;;;22.17;11.95;;;11.90;99.90;;;;;;5046072;28;20020;-82
2023/11/21 11:01:14;;;;;;;24.15;12.43;;;12.00;99.90;;;;;;5062878;28;20044;-82
2023/11/21 11:03:41;;;;;;;18.67;11.02;;;11.90;99.90;;;;;;5046171;28;20017;-83
2023/11/21 11:06:16;;;;;;;19.02;11.15;;;11.90;99.90;;;;;;5045402;28;20041;-83
2023/11/21 11:08:42;;;;;;;16.25;9.23;;;11.90;99.90;;;;;;5047097;28;20482;-82
2023/11/21 11:11:09;;;;;;;17.35;9.70;;;11.90;99.90;;;;;;5045511;28;20046;-82
2023/11/21 11:13:37;;;;;;;15.05;9.05;;;11.80;99.90;;;;;;5065071;28;20025;-83
2023/11/21 11:16:06;;;;;;;15.75;8.73;;;11.80;99.90;;;;;;5046279;28;20052;-82
2023/11/21 11:18:32;;;;;;;17.63;9.60;;;11.80;99.90;;;;;;5045591;28;20397;-83
2023/11/21 11:21:14;;;;;;;15.57;8.98;;;11.70;99.90;;;;;;5064960;28;20479;-83
2023/11/21 11:24:17;;;;;;;19.05;10.38;;;11.70;99.90;;;;;;5044467;28;20538;-83
2023/11/21 11:27:00;;;;;;;20.40;11.00;;;11.60;99.90;;;;;;5021917;28;20045;-82
2023/11/21 11:29:31;;;;;;;19.13;10.10;;;11.60;99.90;;;;;;5045903;28;20104;-82
2023/11/21 11:32:20;;;;;;;18.90;10.90;;;11.50;99.90;;;;;;5044403;28;20040;-82
2023/11/21 11:35:09;;;;;;;20.35;10.90;;;11.50;99.90;;;;;;5064310;28;20020;-82
2023/11/21 11:37:35;;;;;;;19.00;10.82;;;11.50;99.90;;;;;;5045402;28;20466;-82
2023/11/21 11:40:01;;;;;;;17.40;10.00;;;11.50;99.90;;;;;;5044673;28;20032;-81
2023/11/21 11:42:27;;;;;;;15.07;9.00;;;11.40;99.90;;;;;;5046110;28;20017;-82
2023/11/21 11:44:54;;;;;;;14.68;7.80;;;11.40;99.90;;;;;;5044563;28;20036;-82
2023/11/21 11:47:37;;;;;;;14.15;7.57;;;11.40;99.90;;;;;;5064107;28;20379;-83
2023/11/21 11:50:16;;;;;;;15.77;8.20;;;11.40;99.90;;;;;;5044925;28;20025;-82
2023/11/21 11:52:57;;;;;;;17.13;8.52;;;11.50;99.90;;;;;;5045195;28;20017;-82
2023/11/21 11:55:24;;;;;;;15.23;7.93;;;11.50;99.90;;;;;;5046060;28;20023;-82
2023/11/21 11:57:58;;;;;;;14.82;8.75;;;11.50;99.90;;;;;;5043634;28;20041;-82
2023/11/21 12:00:27;;;;;;;18.35;9.25;;;11.50;99.90;;;;;;5063756;28;20052;-82
2023/11/21 12:02:56;;;;;;;17.30;9.05;;;11.50;99.90;;;;;;5044261;28;20105;-82
2023/11/21 12:05:23;;;;;;;15.65;8.48;;;11.60;99.90;;;;;;5045026;28;20033;-83
2023/11/21 12:07:56;;;;;;;14.82;8.63;;;11.60;99.90;;;;;;5045252;28;20120;-82
2023/11/21 12:10:25;;;;;;;15.70;8.05;;;11.70;99.90;;;;;;5043971;28;20052;-83
2023/11/21 12:12:54;;;;;;;12.32;7.43;;;11.70;99.90;;;;;;5045328;28;20036;-82
2023/11/21 12:15:21;;;;;;;11.23;6.32;;;11.80;99.90;;;;;;5043800;28;20077;-82
2023/11/21 12:17:48;;;;;;;12.43;6.97;;;11.80;99.90;;;;;;5045274;28;20021;-82
2023/11/21 12:20:18;;;;;;;13.45;7.30;;;11.80;99.90;;;;;;5062700;28;20021;-82
2023/11/21 12:22:48;;;;;;;13.27;7.03;;;11.80;99.90;;;;;;5044251;28;20128;-83
2023/11/21 12:25:21;;;;;;;12.02;6.57;;;11.80;99.90;;;;;;5044630;28;20114;-83
2023/11/21 12:27:49;;;;;;;12.35;6.97;;;11.80;99.90;;;;;;5042867;28;20051;-83
2023/11/21 12:30:17;;;;;;;12.90;7.25;;;11.70;99.90;;;;;;5045181;28;20017;-83
2023/11/21 12:32:43;;;;;;;13.80;7.30;;;11.70;99.90;;;;;;5061995;28;20104;-83
2023/11/21 12:35:12;;;;;;;12.32;6.93;;;11.70;99.90;;;;;;5044693;28;20024;-80
2023/11/21 12:37:39;;;;;;;12.32;6.97;;;11.60;99.90;;;;;;5044685;28;20092;-82